createdAt,value
2018-02-14T00:02:56.187Z,99.90
2018-02-14T00:05:58.397Z,99.90
2018-02-14T00:09:00.588Z,99.90
2018-02-14T00:12:02.134Z,99.90
2018-02-14T00:15:03.580Z,99.90
2018-02-14T00:18:05.053Z,99.90
2018-02-14T00:21:06.508Z,99.90
2018-02-14T00:24:08.149Z,99.90
2018-02-14T00:27:09.627Z,99.90
2018-02-14T00:30:11.938Z,99.90
2018-02-14T00:33:13.591Z,99.90
2018-02-14T00:36:15.069Z,99.90
2018-02-14T00:39:17.269Z,99.90
2018-02-14T00:42:18.775Z,99.90
2018-02-14T03:07:31.009Z,99.90
2018-02-14T03:10:34.782Z,99.90
2018-02-14T03:13:36.219Z,99.90
2018-02-14T03:16:38.368Z,99.90
2018-02-14T03:19:39.751Z,99.90
2018-02-14T03:22:41.183Z,99.90
2018-02-14T03:46:53.983Z,99.90
2018-02-14T03:49:56.132Z,99.90
2018-02-14T03:52:57.533Z,99.90
2018-02-14T03:55:58.982Z,99.90
2018-02-14T03:59:00.465Z,99.90
2018-02-14T04:02:01.885Z,99.90
2018-02-14T04:05:03.360Z,99.90
2018-02-14T04:08:04.760Z,99.90
2018-02-14T04:11:06.185Z,99.90
2018-02-14T04:14:07.593Z,99.90
2018-02-14T04:17:08.999Z,99.90
2018-02-14T04:20:10.382Z,99.90
2018-02-14T04:23:12.648Z,99.90
2018-02-14T04:26:14.557Z,99.90
2018-02-14T04:29:15.952Z,99.90
2018-02-14T04:32:17.370Z,99.90
2018-02-14T04:35:18.822Z,99.90
2018-02-14T04:38:20.241Z,99.90
2018-02-14T04:41:21.691Z,99.90
2018-02-14T04:44:23.101Z,99.90
2018-02-14T04:47:25.259Z,99.90
2018-02-14T04:50:26.671Z,99.90
2018-02-14T04:53:28.809Z,99.90
2018-02-14T04:56:30.238Z,99.90
2018-02-14T04:59:31.671Z,99.90
2018-02-14T05:02:33.125Z,99.90
2018-02-14T05:05:35.284Z,99.90
2018-02-14T05:08:36.737Z,99.90
2018-02-14T05:11:38.172Z,99.90
2018-02-14T05:14:40.303Z,99.90
2018-02-14T05:17:41.833Z,99.90
2018-02-14T05:20:44.002Z,99.90
2018-02-14T05:23:45.440Z,99.90
2018-02-14T05:26:46.981Z,99.90
2018-02-14T05:29:48.569Z,99.90
2018-02-14T05:32:50.030Z,99.90
2018-02-14T05:35:51.505Z,99.90
2018-02-14T05:38:52.950Z,99.90
2018-02-14T05:41:54.364Z,99.90
2018-02-14T05:44:55.765Z,99.90
2018-02-14T05:47:57.197Z,99.90
2018-02-14T05:50:58.598Z,99.90
2018-02-14T05:54:00.766Z,99.90
2018-02-14T05:57:02.201Z,99.90
2018-02-14T06:00:03.693Z,99.90
2018-02-14T06:03:05.156Z,99.90
2018-02-14T06:06:07.287Z,99.90
2018-02-14T06:09:08.742Z,99.90
2018-02-14T06:12:10.189Z,99.90
2018-02-14T06:15:11.655Z,99.90
2018-02-14T06:18:13.094Z,99.90
2018-02-14T06:21:14.559Z,99.90
2018-02-14T06:24:16.770Z,99.90
2018-02-14T06:27:18.212Z,99.90
2018-02-14T06:30:19.634Z,99.90
2018-02-14T06:33:21.119Z,99.90
2018-02-14T06:36:23.255Z,99.90
2018-02-14T06:39:24.716Z,99.90
2018-02-14T06:42:26.134Z,99.90
2018-02-14T06:45:27.552Z,99.90
2018-02-14T06:48:29.774Z,99.90
2018-02-14T06:51:31.224Z,99.90
2018-02-14T06:54:32.635Z,99.90
2018-02-14T06:57:34.829Z,99.90
2018-02-14T07:00:37.005Z,99.90
2018-02-14T07:03:39.166Z,99.90
2018-02-14T07:06:40.550Z,99.90
2018-02-14T07:09:42.006Z,99.90
2018-02-14T07:12:43.405Z,99.90
2018-02-14T07:15:44.780Z,99.90
2018-02-14T07:18:46.139Z,99.90
2018-02-14T07:21:48.310Z,99.90
2018-02-14T07:24:49.742Z,99.90
2018-02-14T07:27:51.115Z,99.90
2018-02-14T07:30:53.283Z,99.90
2018-02-14T07:33:54.656Z,99.90
2018-02-14T07:36:56.046Z,99.90
2018-02-14T07:39:57.506Z,99.90
2018-02-14T07:46:07.095Z,99.90
2018-02-14T07:49:08.470Z,99.90
2018-02-14T07:52:10.637Z,99.90
2018-02-14T07:58:21.032Z,99.90
2018-02-14T08:01:23.209Z,99.90
2018-02-14T08:04:24.590Z,99.90
2018-02-14T08:07:26.010Z,99.90
2018-02-14T08:10:27.426Z,99.90
2018-02-14T08:13:28.821Z,99.90
2018-02-14T08:16:30.261Z,99.90
2018-02-14T08:19:32.425Z,99.90
2018-02-14T08:22:33.836Z,99.90
2018-02-14T08:25:35.958Z,99.90
2018-02-14T08:28:37.389Z,99.90
2018-02-14T08:31:38.904Z,99.90
2018-02-14T08:34:41.122Z,99.90
2018-02-14T08:37:43.244Z,99.90
2018-02-14T08:40:45.719Z,99.90
2018-02-14T08:43:47.917Z,99.90
2018-02-14T08:46:49.380Z,99.90
2018-02-14T08:49:50.835Z,99.90
2018-02-14T08:52:52.325Z,99.90
2018-02-14T08:55:53.817Z,99.90
2018-02-14T08:58:55.246Z,99.60
2018-02-14T09:01:56.697Z,99.30
2018-02-14T09:04:58.991Z,99.70
2018-02-14T09:08:00.499Z,99.50
2018-02-14T09:11:01.974Z,99.90
2018-02-14T09:14:03.399Z,99.70
2018-02-14T09:17:04.855Z,98.40
2018-02-14T09:20:06.282Z,97.70
2018-02-14T09:23:07.727Z,97.00
2018-02-14T09:26:09.177Z,97.40
2018-02-14T09:29:10.610Z,96.90
2018-02-14T09:32:12.986Z,96.40
2018-02-14T09:35:14.401Z,95.90
2018-02-14T09:38:15.846Z,96.90
2018-02-14T09:41:18.013Z,95.50
2018-02-14T09:44:19.417Z,95.40
2018-02-14T09:47:20.961Z,95.30
2018-02-14T09:50:22.444Z,94.20
2018-02-14T09:53:23.880Z,94.20
2018-02-14T09:56:25.358Z,94.10
2018-02-14T09:59:26.796Z,93.00
2018-02-14T10:02:28.264Z,92.30
2018-02-14T10:05:30.400Z,95.00
2018-02-14T10:08:31.849Z,94.90
2018-02-14T10:11:33.465Z,92.60
2018-02-14T10:14:34.943Z,94.50
2018-02-14T10:17:37.169Z,93.40
2018-02-14T10:20:38.701Z,93.40
2018-02-14T10:23:40.118Z,92.60
2018-02-14T10:26:41.566Z,93.40
2018-02-14T10:29:43.037Z,93.00
2018-02-14T10:32:44.505Z,90.30
2018-02-14T10:35:45.966Z,90.20
2018-02-14T10:38:49.006Z,90.40
2018-02-14T10:41:51.248Z,89.80
2018-02-14T10:44:53.463Z,90.50
2018-02-14T10:47:54.925Z,90.60
2018-02-14T10:50:56.397Z,89.30
2018-02-14T10:53:57.828Z,90.20
2018-02-14T10:56:59.315Z,91.50
2018-02-14T11:00:00.801Z,86.80
2018-02-14T11:03:08.183Z,88.20
2018-02-14T11:06:12.546Z,90.60
2018-02-14T11:09:14.791Z,92.00
2018-02-14T11:12:16.220Z,91.90
2018-02-14T11:15:17.613Z,84.60
2018-02-14T11:18:19.155Z,92.20
2018-02-14T11:21:20.722Z,54.10
2018-02-14T11:24:22.190Z,59.00
2018-02-14T11:27:23.600Z,70.80
2018-02-14T11:30:25.814Z,81.90
2018-02-14T11:33:27.270Z,81.90
2018-02-14T11:36:29.431Z,86.90
2018-02-14T11:39:30.978Z,87.00
2018-02-14T11:42:33.261Z,74.30
2018-02-14T11:45:34.819Z,74.40
2018-02-14T11:48:36.586Z,75.60
2018-02-14T11:51:38.101Z,76.30
2018-02-14T11:54:39.650Z,78.40
2018-02-14T11:57:42.202Z,70.10
2018-02-14T12:00:43.715Z,69.90
2018-02-14T12:03:46.082Z,72.90
2018-02-14T12:06:47.546Z,72.90
2018-02-14T12:09:49.008Z,76.00
2018-02-14T12:12:51.190Z,73.00
2018-02-14T12:15:53.697Z,67.90
2018-02-14T12:18:55.176Z,67.80
2018-02-14T12:21:57.279Z,71.20
2018-02-14T12:25:12.931Z,74.10
2018-02-14T12:32:19.579Z,70.50
2018-02-14T12:35:21.838Z,69.00
2018-02-14T12:38:23.351Z,68.80
2018-02-14T12:41:25.545Z,75.60
2018-02-14T12:44:27.037Z,75.00
2018-02-14T12:47:28.993Z,66.30
2018-02-14T12:50:30.636Z,65.10
2018-02-14T12:53:32.075Z,65.80
2018-02-14T12:56:33.567Z,60.60
2018-02-14T12:59:35.045Z,56.70
2018-02-14T13:02:36.533Z,73.00
2018-02-14T13:05:37.981Z,90.70
2018-02-14T13:08:40.812Z,58.80
2018-02-14T13:11:42.341Z,58.70
2018-02-14T13:14:43.795Z,62.80
2018-02-14T13:17:45.274Z,56.80
2018-02-14T13:20:46.742Z,53.70
2018-02-14T13:23:48.958Z,53.20
2018-02-14T13:26:51.146Z,52.40
2018-02-14T13:29:52.558Z,52.40
2018-02-14T13:32:54.004Z,53.90
2018-02-14T13:35:55.461Z,51.80
2018-02-14T13:38:56.848Z,50.00
2018-02-14T13:41:58.302Z,52.90
2018-02-14T13:44:59.788Z,51.50
2018-02-14T13:48:01.258Z,51.30
2018-02-14T13:51:03.420Z,49.50
2018-02-14T13:54:04.870Z,49.40
2018-02-14T13:57:06.310Z,48.40
2018-02-14T14:00:08.498Z,49.10
2018-02-14T14:03:09.971Z,49.00
2018-02-14T14:06:11.566Z,48.00
2018-02-14T14:09:12.980Z,51.40
2018-02-14T14:12:14.366Z,50.10
2018-02-14T14:15:15.880Z,51.20
2018-02-14T14:18:18.052Z,53.60
2018-02-14T14:21:19.517Z,53.40
2018-02-14T14:24:21.734Z,55.10
2018-02-14T14:27:23.197Z,54.50
2018-02-14T14:30:24.607Z,54.90
2018-02-14T14:33:26.037Z,55.50
2018-02-14T14:36:28.234Z,54.30
2018-02-14T14:39:29.659Z,54.10
2018-02-14T14:42:31.163Z,56.50
2018-02-14T14:45:32.614Z,58.40
2018-02-14T14:48:34.121Z,62.30
2018-02-14T14:51:35.598Z,69.60
2018-02-14T14:54:37.006Z,73.40
2018-02-14T14:57:38.510Z,67.80
2018-02-14T15:00:39.967Z,71.00
2018-02-14T15:03:41.750Z,67.20
2018-02-14T15:06:43.942Z,67.80
2018-02-14T15:09:46.125Z,68.40
2018-02-14T15:12:47.551Z,68.30
2018-02-14T15:15:48.998Z,65.70
2018-02-14T15:18:50.470Z,72.50
2018-02-14T15:25:09.234Z,65.30
2018-02-14T15:28:10.624Z,67.80
2018-02-14T15:31:12.015Z,67.80
2018-02-14T15:34:13.423Z,72.10
2018-02-14T15:37:15.538Z,99.60
2018-02-14T15:40:16.953Z,99.40
2018-02-14T15:43:19.081Z,75.20
2018-02-14T15:46:20.525Z,75.10
2018-02-14T15:49:21.895Z,69.90
2018-02-14T15:52:23.303Z,71.90
2018-02-14T15:55:24.922Z,77.70
2018-02-14T15:58:26.322Z,74.90
2018-02-14T16:01:27.683Z,70.10
2018-02-14T16:04:29.099Z,70.50
2018-02-14T16:07:31.244Z,70.30
2018-02-14T16:10:32.602Z,70.10
2018-02-14T16:13:33.996Z,66.40
2018-02-14T16:16:35.392Z,60.90
2018-02-14T16:19:36.794Z,62.90
2018-02-14T16:22:38.251Z,63.70
2018-02-14T16:25:39.641Z,70.40
2018-02-14T16:28:41.002Z,75.40
2018-02-14T16:31:43.485Z,85.20
2018-02-14T16:34:45.612Z,73.50
2018-02-14T16:37:47.778Z,74.90
2018-02-14T16:40:49.182Z,74.50
2018-02-14T16:43:51.341Z,73.70
2018-02-14T16:46:53.344Z,74.10
2018-02-14T16:49:54.822Z,66.90
2018-02-14T16:52:56.150Z,64.00
2018-02-14T16:55:57.505Z,62.40
2018-02-14T16:58:58.854Z,65.00
2018-02-14T17:02:00.249Z,65.00
2018-02-14T17:05:01.649Z,73.30
2018-02-14T17:08:03.070Z,88.30
2018-02-14T17:11:05.253Z,90.20
2018-02-14T17:14:07.382Z,84.30
2018-02-14T17:17:08.757Z,83.60
2018-02-14T17:20:10.897Z,92.90
2018-02-14T17:23:12.276Z,92.90
2018-02-14T17:26:13.663Z,93.60
2018-02-14T17:29:15.070Z,90.20
2018-02-14T17:32:16.485Z,91.90
2018-02-14T17:35:17.995Z,91.60
2018-02-14T17:38:19.336Z,91.50
2018-02-14T17:41:20.745Z,94.20
2018-02-14T17:44:22.898Z,88.90
2018-02-14T17:47:25.790Z,88.70
2018-02-14T17:50:27.288Z,91.20
2018-02-14T17:53:28.692Z,92.60
2018-02-14T17:56:30.022Z,91.90
2018-02-14T17:59:31.445Z,91.20
2018-02-14T18:02:32.840Z,91.70
2018-02-14T18:05:34.261Z,92.50
2018-02-14T18:08:35.833Z,91.50
2018-02-14T18:11:37.186Z,92.60
2018-02-14T18:14:38.588Z,91.80
2018-02-14T18:17:40.001Z,91.90
2018-02-14T18:20:41.419Z,93.40
2018-02-14T18:23:42.787Z,94.50
2018-02-14T18:26:44.152Z,94.20
2018-02-14T18:29:46.312Z,93.40
2018-02-14T18:32:47.718Z,93.40
2018-02-14T18:35:49.039Z,95.40
2018-02-14T18:38:51.122Z,94.80
2018-02-14T18:41:52.462Z,94.60
2018-02-14T18:44:53.808Z,95.00
2018-02-14T18:47:55.955Z,96.10
2018-02-14T18:50:57.298Z,96.00
2018-02-14T18:53:59.446Z,95.60
2018-02-14T18:57:00.768Z,95.50
2018-02-14T19:00:02.953Z,95.60
2018-02-14T19:03:04.397Z,95.40
2018-02-14T19:06:05.828Z,96.20
2018-02-14T19:09:07.206Z,96.70
2018-02-14T19:12:08.697Z,96.10
2018-02-14T19:15:10.071Z,95.90
2018-02-14T19:18:11.480Z,96.50
2018-02-14T19:21:12.907Z,96.50
2018-02-14T19:24:14.244Z,96.90
2018-02-14T19:27:15.584Z,97.10
2018-02-14T19:30:17.009Z,99.90
2018-02-14T19:33:19.129Z,97.00
2018-02-14T19:36:22.198Z,97.20
2018-02-14T19:39:23.572Z,97.10
2018-02-14T19:42:24.981Z,96.80
2018-02-14T19:45:26.471Z,97.50
2018-02-14T19:48:28.677Z,97.50
2018-02-14T19:51:30.065Z,97.60
2018-02-14T19:54:31.484Z,97.90
2018-02-14T19:57:33.185Z,97.40
2018-02-14T20:00:34.535Z,98.00
2018-02-14T20:03:36.026Z,98.20
2018-02-14T20:06:38.306Z,97.70
2018-02-14T20:09:39.766Z,97.50
2018-02-14T20:12:41.453Z,97.40
2018-02-14T20:15:42.856Z,97.00
2018-02-14T20:18:44.529Z,97.40
2018-02-14T20:21:47.017Z,97.30
2018-02-14T20:24:49.163Z,97.00
2018-02-14T20:27:50.532Z,96.70
2018-02-14T20:30:52.075Z,97.30
2018-02-14T20:33:53.457Z,97.60
2018-02-14T20:36:55.555Z,96.80
2018-02-14T20:39:58.232Z,97.80
2018-02-14T20:42:59.626Z,97.70
2018-02-14T20:46:01.168Z,96.50
2018-02-14T20:49:02.857Z,96.80
2018-02-14T20:52:04.317Z,97.60
2018-02-14T20:55:06.439Z,98.00
2018-02-14T20:58:07.896Z,98.00
2018-02-14T21:01:09.281Z,98.00
2018-02-14T21:04:10.671Z,97.30
2018-02-14T21:07:12.039Z,97.70
2018-02-14T21:10:13.469Z,97.30
2018-02-14T21:13:14.937Z,97.50
2018-02-14T21:16:17.255Z,97.70
2018-02-14T21:19:18.659Z,97.60
2018-02-14T21:22:20.263Z,97.70
2018-02-14T21:25:21.664Z,98.00
2018-02-14T21:28:23.307Z,97.80
2018-02-14T21:31:24.656Z,97.90
2018-02-14T21:34:26.939Z,98.00
2018-02-14T21:37:28.381Z,98.00
2018-02-14T21:40:29.982Z,97.80
2018-02-14T21:43:31.403Z,97.70
2018-02-14T21:46:33.047Z,97.70
2018-02-14T21:49:34.409Z,98.00
2018-02-14T21:52:37.032Z,97.50
2018-02-14T21:55:38.810Z,97.50
2018-02-14T21:58:40.184Z,97.40
2018-02-14T22:01:42.700Z,98.00
2018-02-14T22:04:44.376Z,98.00
2018-02-14T22:07:46.529Z,97.70
2018-02-14T22:10:48.011Z,97.50
2018-02-14T22:13:49.618Z,97.90
2018-02-14T22:16:51.100Z,98.30
2018-02-14T22:19:53.052Z,98.30
2018-02-14T22:22:54.675Z,98.60
2018-02-14T22:25:56.274Z,98.50
2018-02-14T22:28:58.231Z,98.70
2018-02-14T22:32:00.161Z,99.20
2018-02-14T22:35:01.630Z,99.10
2018-02-14T22:38:03.244Z,99.20
2018-02-14T22:41:04.892Z,98.90
2018-02-14T22:44:07.071Z,98.80
2018-02-14T22:47:08.490Z,98.60
2018-02-14T22:50:09.979Z,99.00
2018-02-14T22:53:11.441Z,99.10
2018-02-14T22:56:13.128Z,98.60
2018-02-14T22:59:14.706Z,99.00
2018-02-14T23:02:17.716Z,98.80
2018-02-14T23:05:19.989Z,98.20
2018-02-14T23:08:23.017Z,97.90
2018-02-14T23:11:26.322Z,97.80
2018-02-14T23:14:27.820Z,98.30
2018-02-14T23:17:29.288Z,98.10
2018-02-14T23:20:30.723Z,98.20
2018-02-14T23:23:32.195Z,98.30
2018-02-14T23:26:34.377Z,97.90
2018-02-14T23:29:36.353Z,98.00
2018-02-14T23:32:38.354Z,97.80
2018-02-14T23:35:39.833Z,97.60
2018-02-14T23:38:41.944Z,97.50
2018-02-14T23:41:45.143Z,97.90
2018-02-14T23:44:47.024Z,97.80
2018-02-14T23:47:48.796Z,97.80
2018-02-14T23:50:50.448Z,97.50
2018-02-14T23:53:51.948Z,97.60
2018-02-14T23:56:53.413Z,97.20
2018-02-14T23:59:54.886Z,97.30
